Time;durP1;ratioP1;P1;durP2;ratioP2;P2;SDS_P1;SDS_P2;PMS_P1;PMS_P2;Temp;Humidity;BMP_temperature;BMP_pressure;BME280_temperature;BME280_humidity;BME280_pressure;Samples;Min_cycle;Max_cycle;Signal;HPM_P1;HPM_P2
2022/03/16 00:01:57;;;;;;;;;;;;;;;21.95;44.50;101772.16;7289549;19;151969;-62
2022/03/16 00:04:24;;;;;;;;;;;;;;;21.97;44.48;101771.88;7279149;19;154699;-62
2022/03/16 00:06:52;;;;;;;;;;;;;;;21.98;44.64;101768.75;7280286;19;151658;-62
2022/03/16 00:09:18;;;;;;;;;;;;;;;21.99;44.60;101766.75;7282226;19;152722;-63
2022/03/16 00:11:45;;;;;;;;;;;;;;;22.00;44.19;101765.63;7278954;19;154053;-63
2022/03/16 00:14:12;;;;;;;;;;;;;;;22.00;44.50;101769.28;7281777;19;152211;-62
2022/03/16 00:16:39;;;;;;;;;;;;;;;22.00;44.50;101768.44;7280033;19;152115;-63
2022/03/16 00:19:06;;;;;;;;;;;;;;;22.00;44.70;101760.00;7280564;19;152722;-62
2022/03/16 00:21:34;;;;;;;;;;;;;;;21.99;44.74;101764.78;7288391;19;152293;-62
2022/03/16 00:24:00;;;;;;;;;;;;;;;21.99;44.41;101761.97;7278561;19;154422;-61
2022/03/16 00:26:27;;;;;;;;;;;;;;;22.01;44.36;101758.88;7281061;19;152313;-61
2022/03/16 00:28:54;;;;;;;;;;;;;;;22.01;44.33;101756.06;7279751;19;153308;-62
2022/03/16 00:31:21;;;;;;;;;;;;;;;22.00;44.55;101755.22;7278765;19;153591;-62
2022/03/16 00:33:48;;;;;;;;;;;;;;;21.99;44.50;101755.50;7282083;19;152030;-61
2022/03/16 00:36:17;;;;;;;;;;;;;;;21.99;44.85;101750.72;7281020;19;154415;-63
2022/03/16 00:38:44;;;;;;;;;;;;;;;21.99;44.51;101755.50;7278061;19;153730;-62
2022/03/16 00:41:11;;;;;;;;;;;;;;;21.98;44.63;101760.31;7280779;19;151944;-64
2022/03/16 00:43:38;;;;;;;;;;;;;;;21.97;44.57;101753.00;7283934;19;154267;-63
2022/03/16 00:46:05;;;;;;;;;;;;;;;21.96;44.56;101751.31;7281469;19;152077;-63
2022/03/16 00:48:32;;;;;;;;;;;;;;;21.96;44.48;101761.75;7279673;19;153123;-62
2022/03/16 00:50:59;;;;;;;;;;;;;;;21.95;44.54;101752.44;7277004;19;152447;-63
2022/03/16 00:53:26;;;;;;;;;;;;;;;21.93;44.71;101751.94;7281216;19;151821;-61
2022/03/16 00:55:52;;;;;;;;;;;;;;;21.93;44.25;101753.91;7278458;19;153293;-61
2022/03/16 00:58:19;;;;;;;;;;;;;;;21.90;44.91;101740.38;7278104;19;153935;-61
2022/03/16 01:00:46;;;;;;;;;;;;;;;21.90;44.80;101746.00;7278621;19;152593;-62
2022/03/16 01:03:13;;;;;;;;;;;;;;;21.88;44.75;101742.66;7276756;19;156173;-62
2022/03/16 01:05:40;;;;;;;;;;;;;;;21.87;44.83;101735.38;7284248;19;153450;-63
2022/03/16 01:08:07;;;;;;;;;;;;;;;21.86;44.83;101730.88;7281441;19;153199;-63
2022/03/16 01:10:34;;;;;;;;;;;;;;;21.84;44.88;101730.34;7274685;19;152108;-63
2022/03/16 01:13:01;;;;;;;;;;;;;;;21.82;44.83;101726.97;7281241;19;151598;-63
2022/03/16 01:15:28;;;;;;;;;;;;;;;21.81;45.09;101728.09;7278911;19;153907;-63
2022/03/16 01:17:55;;;;;;;;;;;;;;;21.80;44.98;101729.25;7276896;19;152611;-64
2022/03/16 01:20:22;;;;;;;;;;;;;;;21.78;45.17;101726.75;7278871;19;151730;-62
2022/03/16 01:22:49;;;;;;;;;;;;;;;21.76;44.85;101725.38;7276537;19;153878;-63
2022/03/16 01:25:16;;;;;;;;;;;;;;;21.73;45.22;101718.34;7278265;19;153260;-62
2022/03/16 01:27:43;;;;;;;;;;;;;;;21.72;45.23;101717.50;7288076;19;152015;-62
2022/03/16 01:30:10;;;;;;;;;;;;;;;21.73;45.21;101724.81;7278319;19;153362;-62
2022/03/16 01:32:37;;;;;;;;;;;;;;;21.77;45.10;101722.25;7279639;19;152009;-61
2022/03/16 01:35:04;;;;;;;;;;;;;;;21.71;45.00;101715.00;7279477;19;152865;-62
2022/03/16 01:37:31;;;;;;;;;;;;;;;21.69;45.37;101720.94;7278567;19;154394;-61
2022/03/16 01:39:58;;;;;;;;;;;;;;;21.65;45.53;101719.84;7278076;19;151866;-61
2022/03/16 01:42:25;;;;;;;;;;;;;;;21.63;45.20;101708.03;7278459;19;154041;-61
2022/03/16 01:44:53;;;;;;;;;;;;;;;21.61;45.41;101710.34;7276934;19;154191;-61
2022/03/16 01:47:21;;;;;;;;;;;;;;;21.60;45.22;101700.22;7277812;19;152056;-62
2022/03/16 01:49:48;;;;;;;;;;;;;;;21.60;45.42;101703.03;7283316;19;152458;-62
2022/03/16 01:52:18;;;;;;;;;;;;;;;21.58;45.61;101702.47;7277685;19;151559;-61
2022/03/16 01:54:45;;;;;;;;;;;;;;;21.56;45.50;101701.09;7276770;19;153639;-61
2022/03/16 01:57:12;;;;;;;;;;;;;;;21.55;45.93;101691.81;7273292;19;154196;-62
2022/03/16 01:59:39;;;;;;;;;;;;;;;21.52;45.52;101685.97;7273122;19;151920;-62
2022/03/16 02:02:06;;;;;;;;;;;;;;;21.51;45.68;101682.31;7272221;19;153433;-62
2022/03/16 02:04:34;;;;;;;;;;;;;;;21.49;45.25;101686.53;7274941;19;153932;-62
2022/03/16 02:07:01;;;;;;;;;;;;;;;21.47;45.47;101675.59;7274186;19;152324;-62
2022/03/16 02:09:29;;;;;;;;;;;;;;;21.45;45.19;101674.22;7274154;19;153967;-62
2022/03/16 02:11:56;;;;;;;;;;;;;;;21.41;45.40;101671.16;7279852;19;153081;-61
2022/03/16 02:14:23;;;;;;;;;;;;;;;21.39;45.15;101670.63;7275735;19;153008;-61
2022/03/16 02:16:51;;;;;;;;;;;;;;;21.37;45.54;101672.91;7271904;19;154468;-62
2022/03/16 02:19:18;;;;;;;;;;;;;;;21.34;45.07;101667.88;7276664;19;152251;-61
2022/03/16 02:21:45;;;;;;;;;;;;;;;21.33;45.11;101674.63;7272224;19;152867;-61
2022/03/16 02:24:12;;;;;;;;;;;;;;;21.32;45.25;101672.94;7269544;19;154355;-62
2022/03/16 02:26:39;;;;;;;;;;;;;;;21.30;45.25;101672.41;7273554;19;152217;-63
2022/03/16 02:29:06;;;;;;;;;;;;;;;21.28;45.48;101669.91;7272841;19;152426;-62
2022/03/16 02:31:33;;;;;;;;;;;;;;;21.26;45.14;101666.53;7279720;19;154830;-62
2022/03/16 02:34:00;;;;;;;;;;;;;;;21.23;45.07;101655.88;7274182;19;154352;-62
2022/03/16 02:36:35;;;;;;;;;;;;;;;21.21;45.00;101654.53;7271976;19;156056;-61
2022/03/16 02:39:11;;;;;;;;;;;;;;;21.19;45.30;101662.41;7271217;19;152590;-62
2022/03/16 02:41:38;;;;;;;;;;;;;;;21.17;45.01;101653.41;7272670;19;155479;-61
2022/03/16 02:44:05;;;;;;;;;;;;;;;21.15;44.92;101658.50;7270750;19;153641;-62
2022/03/16 02:46:32;;;;;;;;;;;;;;;21.13;45.51;101658.78;7274812;19;151952;-62
2022/03/16 02:48:59;;;;;;;;;;;;;;;21.11;45.17;101654.56;7273614;19;152666;-62
2022/03/16 02:51:26;;;;;;;;;;;;;;;21.09;45.10;101657.66;7274423;19;154449;-61
2022/03/16 02:53:53;;;;;;;;;;;;;;;21.07;45.48;101656.31;7282291;19;152106;-62
2022/03/16 02:56:20;;;;;;;;;;;;;;;21.04;45.19;101649.28;7271462;19;154439;-62
2022/03/16 02:58:47;;;;;;;;;;;;;;;21.04;45.13;101646.47;7274975;19;152470;-62
2022/03/16 03:01:14;;;;;;;;;;;;;;;21.01;45.02;101649.03;7272711;19;154860;-62
2022/03/16 03:03:41;;;;;;;;;;;;;;;20.99;45.12;101649.31;7268359;19;154064;-63
2022/03/16 03:06:08;;;;;;;;;;;;;;;20.96;45.10;101647.13;7275328;19;153357;-61
2022/03/16 03:08:35;;;;;;;;;;;;;;;20.98;45.13;101644.03;7274534;19;152644;-61
2022/03/16 03:11:02;;;;;;;;;;;;;;;20.96;45.15;101643.47;7273757;19;154637;-61
2022/03/16 03:13:29;;;;;;;;;;;;;;;20.92;45.09;101646.03;7282371;19;151927;-62
2022/03/16 03:15:56;;;;;;;;;;;;;;;20.93;45.36;101647.72;7290235;19;153521;-61
2022/03/16 03:18:24;;;;;;;;;;;;;;;20.90;45.31;101642.66;7281405;19;152396;-61
2022/03/16 03:20:51;;;;;;;;;;;;;;;20.91;45.75;101646.31;7281652;19;153402;-62
2022/03/16 03:23:18;;;;;;;;;;;;;;;20.86;45.73;101639.63;7279450;19;153704;-62
2022/03/16 03:25:44;;;;;;;;;;;;;;;20.86;45.72;101641.59;7281689;19;152376;-62
2022/03/16 03:28:11;;;;;;;;;;;;;;;20.84;45.81;101636.28;7281262;19;152513;-62
2022/03/16 03:30:38;;;;;;;;;;;;;;;20.82;45.76;101635.72;7282632;19;153442;-62
2022/03/16 03:33:05;;;;;;;;;;;;;;;20.82;45.46;101634.88;7281851;19;151947;-62
2022/03/16 03:35:32;;;;;;;;;;;;;;;20.80;45.81;101628.72;7280831;19;152606;-62
2022/03/16 03:37:59;;;;;;;;;;;;;;;20.79;45.52;101625.09;7290313;19;154561;-62
2022/03/16 03:40:26;;;;;;;;;;;;;;;20.76;45.88;101625.66;7283797;19;153472;-62
2022/03/16 03:42:52;;;;;;;;;;;;;;;20.76;45.63;101631.25;7279561;19;154393;-61
2022/03/16 03:45:19;;;;;;;;;;;;;;;20.77;45.94;101635.75;7282687;19;152275;-62
2022/03/16 03:47:46;;;;;;;;;;;;;;;20.75;45.86;101634.38;7281914;19;153511;-61
2022/03/16 03:50:13;;;;;;;;;;;;;;;20.74;45.96;101638.31;7282493;19;153538;-61
2022/03/16 03:52:40;;;;;;;;;;;;;;;20.72;46.09;101632.97;7281310;19;152151;-61
2022/03/16 03:55:07;;;;;;;;;;;;;;;20.73;46.32;101636.63;7280424;19;152246;-61
2022/03/16 03:57:34;;;;;;;;;;;;;;;20.70;46.35;101643.69;7280650;19;154120;-61
2022/03/16 04:00:01;;;;;;;;;;;;;;;20.69;46.34;101641.16;7287557;19;151975;-63
2022/03/16 04:02:27;;;;;;;;;;;;;;;20.71;46.34;101636.94;7281152;19;153480;-62
2022/03/16 04:04:54;;;;;;;;;;;;;;;20.68;46.72;101643.13;7279128;19;151815;-62
2022/03/16 04:07:21;;;;;;;;;;;;;;;20.67;46.62;101635.03;7282594;19;153377;-62
2022/03/16 04:09:50;;;;;;;;;;;;;;;20.66;46.52;101633.34;7279485;19;154125;-62
2022/03/16 04:12:18;;;;;;;;;;;;;;;20.66;46.33;101633.34;7280072;19;152048;-61
2022/03/16 04:14:44;;;;;;;;;;;;;;;20.62;46.79;101624.66;7283421;19;152861;-62
2022/03/16 04:17:11;;;;;;;;;;;;;;;20.60;46.59;101621.31;7279346;19;154152;-62
2022/03/16 04:19:38;;;;;;;;;;;;;;;20.59;46.43;101619.63;7283064;19;151659;-62
2022/03/16 04:22:05;;;;;;;;;;;;;;;20.59;46.87;101624.38;7287408;19;153783;-61
2022/03/16 04:24:32;;;;;;;;;;;;;;;20.57;46.51;101621.91;7277957;19;153602;-60
2022/03/16 04:27:00;;;;;;;;;;;;;;;20.57;46.91;101626.66;7280593;19;152563;-61
2022/03/16 04:29:26;;;;;;;;;;;;;;;20.57;46.66;101626.66;7281946;19;154334;-62
2022/03/16 04:31:53;;;;;;;;;;;;;;;20.55;47.01;101626.09;7281596;19;151600;-61
2022/03/16 04:34:20;;;;;;;;;;;;;;;20.56;46.66;101627.78;7282511;19;151800;-62
2022/03/16 04:36:47;;;;;;;;;;;;;;;20.54;47.06;101628.06;7279746;19;153732;-61
2022/03/16 04:39:14;;;;;;;;;;;;;;;20.53;47.10;101623.63;7280273;19;151795;-61
2022/03/16 04:41:41;;;;;;;;;;;;;;;20.52;47.01;101624.75;7288494;19;153072;-62
2022/03/16 04:44:08;;;;;;;;;;;;;;;20.52;46.94;101630.34;7280737;19;152276;-61
2022/03/16 04:46:35;;;;;;;;;;;;;;;20.50;47.29;101620.53;7279894;19;154484;-61
2022/03/16 04:49:02;;;;;;;;;;;;;;;20.49;47.10;101619.69;7278815;19;154652;-62
2022/03/16 04:51:29;;;;;;;;;;;;;;;20.48;46.99;101615.22;7279670;19;151778;-62
2022/03/16 04:53:56;;;;;;;;;;;;;;;20.48;47.16;101618.03;7281301;19;152977;-62
2022/03/16 04:56:23;;;;;;;;;;;;;;;20.46;47.14;101616.63;7279554;19;154107;-61
2022/03/16 04:58:50;;;;;;;;;;;;;;;20.45;47.06;101624.22;7280702;19;152909;-63
2022/03/16 05:01:17;;;;;;;;;;;;;;;20.43;47.16;101618.06;7280602;19;152346;-62
2022/03/16 05:03:45;;;;;;;;;;;;;;;20.42;47.25;101622.00;7287912;19;153969;-61
2022/03/16 05:06:13;;;;;;;;;;;;;;;20.42;47.54;101619.19;7278759;19;152567;-61
2022/03/16 05:08:40;;;;;;;;;;;;;;;20.44;47.22;101616.94;7280545;19;154780;-61
2022/03/16 05:11:07;;;;;;;;;;;;;;;20.46;47.20;101609.06;7277280;19;151958;-61
2022/03/16 05:13:34;;;;;;;;;;;;;;;20.49;47.50;101611.25;7281600;19;153436;-61
2022/03/16 05:16:01;;;;;;;;;;;;;;;20.51;47.73;101609.03;7277565;19;153952;-61
2022/03/16 05:18:28;;;;;;;;;;;;;;;20.54;47.68;101608.41;7279707;19;152043;-61
2022/03/16 05:20:55;;;;;;;;;;;;;;;20.60;47.45;101606.41;7279796;19;154289;-60
2022/03/16 05:23:22;;;;;;;;;;;;;;;20.66;47.58;101600.47;7281357;19;156214;-61
2022/03/16 05:25:49;;;;;;;;;;;;;;;20.72;47.67;101602.09;7288338;19;153199;-61
2022/03/16 05:28:17;;;;;;;;;;;;;;;20.78;47.78;101605.69;7277580;19;153554;-61
2022/03/16 05:30:44;;;;;;;;;;;;;;;20.84;48.23;101593.31;7277589;19;151717;-62
2022/03/16 05:33:11;;;;;;;;;;;;;;;20.92;48.12;101589.84;7279563;19;152714;-60
2022/03/16 05:35:39;;;;;;;;;;;;;;;21.00;47.92;101589.19;7276988;19;153498;-60
2022/03/16 05:38:08;;;;;;;;;;;;;;;21.07;47.67;101592.53;7280936;19;152180;-60
2022/03/16 05:40:34;;;;;;;;;;;;;;;21.14;47.77;101590.22;7277992;19;155649;-61
2022/03/16 05:43:01;;;;;;;;;;;;;;;21.21;47.32;101587.06;7279453;19;154086;-64
2022/03/16 05:45:28;;;;;;;;;;;;;;;21.26;47.24;101576.59;7275916;19;152161;-61
2022/03/16 05:47:55;;;;;;;;;;;;;;;21.34;47.33;101577.94;7286020;19;154477;-61
2022/03/16 05:50:24;;;;;;;;;;;;;;;21.41;47.46;101585.97;7277496;19;151791;-61
2022/03/16 05:52:51;;;;;;;;;;;;;;;21.45;47.01;101587.91;7277371;19;153405;-60
2022/03/16 05:55:18;;;;;;;;;;;;;;;21.53;46.96;101584.41;7279267;19;154085;-61
2022/03/16 05:57:45;;;;;;;;;;;;;;;21.60;46.91;101586.88;7278413;19;151904;-61
2022/03/16 06:00:16;;;;;;;;;;;;;;;21.65;47.03;101593.28;7277529;19;153249;-61
2022/03/16 06:02:44;;;;;;;;;;;;;;;21.72;46.56;101592.91;7275431;19;154668;-62
2022/03/16 06:05:12;;;;;;;;;;;;;;;21.78;46.93;101588.91;7278025;19;151737;-61
2022/03/16 06:07:38;;;;;;;;;;;;;;;21.83;46.64;101590.81;7279532;19;153498;-61
2022/03/16 06:10:06;;;;;;;;;;;;;;;21.88;46.42;101585.97;7281515;19;154238;-61
2022/03/16 06:12:34;;;;;;;;;;;;;;;21.94;46.71;101579.13;7279372;19;153340;-62
2022/03/16 06:15:01;;;;;;;;;;;;;;;22.00;46.65;101585.53;7275078;19;153535;-61
2022/03/16 06:17:27;;;;;;;;;;;;;;;22.04;46.63;101572.53;7277517;19;152261;-61
2022/03/16 06:19:55;;;;;;;;;;;;;;;22.10;46.44;101580.59;7277107;19;152681;-62
2022/03/16 06:22:21;;;;;;;;;;;;;;;22.17;46.45;101581.03;7277925;19;154563;-62
2022/03/16 06:24:48;;;;;;;;;;;;;;;22.24;46.19;101572.22;7273569;19;152178;-61
2022/03/16 06:27:15;;;;;;;;;;;;;;;22.30;46.26;101565.41;7278844;19;152761;-62
2022/03/16 06:29:42;;;;;;;;;;;;;;;22.34;45.99;101572.09;7275997;19;153808;-62
2022/03/16 06:32:09;;;;;;;;;;;;;;;22.40;45.89;101570.00;7284542;19;152809;-63
2022/03/16 06:34:36;;;;;;;;;;;;;;;22.44;45.84;101571.09;7273947;19;156363;-62
2022/03/16 06:37:03;;;;;;;;;;;;;;;22.49;45.39;101582.25;7278238;19;151836;-61
2022/03/16 06:39:29;;;;;;;;;;;;;;;22.50;45.59;101581.94;7277990;19;153983;-61
2022/03/16 06:41:56;;;;;;;;;;;;;;;22.53;45.64;101588.97;7274214;19;153357;-61
2022/03/16 06:44:23;;;;;;;;;;;;;;;22.56;45.38;101579.88;7277421;19;152167;-61
2022/03/16 06:46:51;;;;;;;;;;;;;;;22.57;45.48;101585.22;7280946;19;152930;-63
2022/03/16 06:49:17;;;;;;;;;;;;;;;22.60;45.22;101587.41;7280102;19;153542;-62
2022/03/16 06:51:44;;;;;;;;;;;;;;;22.61;45.04;101591.06;7290884;19;152346;-62
2022/03/16 06:54:11;;;;;;;;;;;;;;;22.64;45.28;101596.09;7283370;19;153988;-62
2022/03/16 06:56:38;;;;;;;;;;;;;;;22.65;45.13;101589.31;7280897;19;152422;-63
2022/03/16 06:59:06;;;;;;;;;;;;;;;22.66;45.17;101593.81;7282065;19;153835;-63
2022/03/16 07:01:34;;;;;;;;;;;;;;;22.66;44.82;101590.16;7282939;19;153974;-63
2022/03/16 07:04:06;;;;;;;;;;;;;;;22.66;44.68;101592.97;7281486;19;151994;-60
2022/03/16 07:06:33;;;;;;;;;;;;;;;22.68;44.55;101599.13;7283381;19;152917;-60
2022/03/16 07:09:01;;;;;;;;;;;;;;;22.68;45.10;101602.78;7281553;19;153740;-61
2022/03/16 07:11:28;;;;;;;;;;;;;;;22.68;44.64;101607.56;7281524;19;151786;-60
2022/03/16 07:16:32;;;;;;;;;;;;;;;22.68;45.04;101616.03;7282110;19;151891;-61
2022/03/16 07:19:00;;;;;;;;;;;;;;;22.71;45.38;101618.28;7280743;19;153358;-63
2022/03/16 07:21:27;;;;;;;;;;;;;;;22.71;44.86;101621.09;7280723;19;154179;-62
2022/03/16 07:23:54;;;;;;;;;;;;;;;22.72;44.59;101620.75;7280783;19;152228;-61
2022/03/16 07:26:21;;;;;;;;;;;;;;;22.72;44.16;101617.09;7281883;19;153401;-61
2022/03/16 07:28:48;;;;;;;;;;;;;;;22.68;44.32;101616.88;7282681;19;154287;-61
2022/03/16 07:31:15;;;;;;;;;;;;;;;22.66;44.06;101618.31;7280235;19;152721;-61
2022/03/16 07:33:42;;;;;;;;;;;;;;;22.62;43.49;101627.38;7283552;19;153845;-62
2022/03/16 07:36:09;;;;;;;;;;;;;;;22.59;43.75;101619.53;7289795;19;154587;-61
2022/03/16 07:38:36;;;;;;;;;;;;;;;22.58;43.33;101623.50;7283813;19;154399;-62
2022/03/16 07:41:03;;;;;;;;;;;;;;;22.54;43.30;101616.81;7281165;19;154213;-61
2022/03/16 07:43:30;;;;;;;;;;;;;;;22.51;43.26;101617.44;7283093;19;151948;-62
2022/03/16 07:45:58;;;;;;;;;;;;;;;22.50;42.95;101615.75;7280215;19;152755;-62
2022/03/16 07:48:24;;;;;;;;;;;;;;;22.46;43.07;101611.03;7282030;19;154487;-61
2022/03/16 07:50:51;;;;;;;;;;;;;;;22.38;42.81;101620.16;7283777;19;152166;-60
2022/03/16 07:53:18;;;;;;;;;;;;;;;22.14;40.50;101623.88;7281695;19;152593;-61
2022/03/16 07:55:49;;;;;;;;;;;;;;;21.94;41.11;101624.16;7277152;19;152459;-62
2022/03/16 07:58:16;;;;;;;;;;;;;;;21.96;40.90;101623.84;7285602;19;151889;-60
2022/03/16 08:00:43;;;;;;;;;;;;;;;21.96;41.16;101626.66;7281856;19;153611;-61
2022/03/16 08:03:10;;;;;;;;;;;;;;;21.92;41.75;101619.94;7283291;19;151497;-61
2022/03/16 08:05:39;;;;;;;;;;;;;;;21.93;41.85;101616.88;7281441;19;152793;-61
2022/03/16 08:08:06;;;;;;;;;;;;;;;21.92;42.12;101611.50;7280437;19;152400;-60
2022/03/16 08:10:33;;;;;;;;;;;;;;;21.92;42.23;101603.06;7278262;19;152516;-61
2022/03/16 08:13:00;;;;;;;;;;;;;;;21.88;42.16;101602.84;7279240;19;153981;-61
2022/03/16 08:15:27;;;;;;;;;;;;;;;21.88;42.01;101608.47;7282007;19;152075;-62
2022/03/16 08:17:54;;;;;;;;;;;;;;;21.86;42.04;101607.06;7281688;19;152394;-61
2022/03/16 08:20:21;;;;;;;;;;;;;;;21.85;42.53;101611.06;7286983;19;153513;-61
2022/03/16 08:22:54;;;;;;;;;;;;;;;21.82;42.56;101608.81;7281460;19;153639;-61
2022/03/16 08:25:41;;;;;;;;;;;;;;;21.78;42.46;101614.22;7279196;19;155301;-62
2022/03/16 08:28:08;;;;;;;;;;;;;;;21.87;42.04;101618.03;7281049;19;153716;-61
2022/03/16 08:30:35;;;;;;;;;;;;;;;21.86;42.72;101619.16;7281899;19;151935;-61
2022/03/16 08:33:02;;;;;;;;;;;;;;;21.81;42.56;101626.81;7280386;19;153152;-60
2022/03/16 08:35:29;;;;;;;;;;;;;;;21.74;42.62;101627.22;7279811;19;153257;-62
2022/03/16 08:37:57;;;;;;;;;;;;;;;21.71;42.20;101625.00;7280741;19;152080;-61
2022/03/16 08:40:24;;;;;;;;;;;;;;;21.64;42.77;101621.69;7280074;19;152736;-60
2022/03/16 08:42:52;;;;;;;;;;;;;;;21.61;42.45;101630.75;7285741;19;152805;-62
2022/03/16 08:45:20;;;;;;;;;;;;;;;21.54;42.61;101636.72;7277959;19;153465;-61
2022/03/16 08:47:47;;;;;;;;;;;;;;;21.50;42.84;101632.81;7277705;19;152786;-61
2022/03/16 08:50:14;;;;;;;;;;;;;;;21.47;42.70;101627.81;7279127;19;151787;-61
2022/03/16 08:52:41;;;;;;;;;;;;;;;21.45;42.82;101626.41;7279261;19;153661;-63
2022/03/16 08:55:09;;;;;;;;;;;;;;;21.42;42.89;101627.88;7279345;19;153975;-60
2022/03/16 08:57:36;;;;;;;;;;;;;;;21.39;42.67;101631.28;7279243;19;152081;-60
2022/03/16 09:00:04;;;;;;;;;;;;;;;21.37;42.87;101639.16;7281682;19;151898;-61
2022/03/16 09:02:31;;;;;;;;;;;;;;;21.35;42.42;101632.97;7286553;19;153399;-62
2022/03/16 09:04:58;;;;;;;;;;;;;;;21.34;42.50;101628.53;7279085;19;153290;-61
2022/03/16 09:07:25;;;;;;;;;;;;;;;21.32;42.73;101627.97;7277738;19;154437;-60
2022/03/16 09:09:52;;;;;;;;;;;;;;;21.28;42.46;101632.50;7275793;19;152899;-61
2022/03/16 09:12:19;;;;;;;;;;;;;;;21.24;42.68;101618.22;7280545;19;155048;-60
2022/03/16 09:14:46;;;;;;;;;;;;;;;21.22;42.62;101622.44;7280267;19;153536;-61
2022/03/16 09:17:17;;;;;;;;;;;;;;;21.19;42.86;101611.81;7278263;19;152218;-61
2022/03/16 09:19:44;;;;;;;;;;;;;;;21.18;42.44;101608.16;7279037;19;152229;-62
2022/03/16 09:22:11;;;;;;;;;;;;;;;21.16;42.46;101602.00;7276529;19;154458;-61
2022/03/16 09:24:38;;;;;;;;;;;;;;;21.14;42.91;101609.88;7288492;19;151981;-62
2022/03/16 09:27:06;;;;;;;;;;;;;;;21.14;42.61;101606.25;7277192;19;153937;-61
2022/03/16 09:29:33;;;;;;;;;;;;;;;21.09;42.72;101604.28;7278371;19;152417;-61
2022/03/16 09:32:07;;;;;;;;;;;;;;;21.07;42.54;101602.91;7280977;19;154388;-61
2022/03/16 09:34:35;;;;;;;;;;;;;;;21.06;42.86;101616.13;7276029;19;153375;-60
2022/03/16 09:37:03;;;;;;;;;;;;;;;21.04;42.55;101603.50;7278964;19;151840;-61
2022/03/16 09:39:30;;;;;;;;;;;;;;;21.00;42.73;101600.44;7280744;19;152599;-61
2022/03/16 09:41:58;;;;;;;;;;;;;;;21.00;43.03;101596.78;7279075;19;153216;-60
2022/03/16 09:44:27;;;;;;;;;;;;;;;20.96;43.17;101596.56;7280362;19;151950;-61
2022/03/16 09:46:56;;;;;;;;;;;;;;;20.95;43.08;101597.69;7281325;19;154627;-61
2022/03/16 09:49:24;;;;;;;;;;;;;;;20.94;43.04;101598.00;7281343;19;151818;-62
2022/03/16 09:51:51;;;;;;;;;;;;;;;20.91;42.86;101599.41;7279050;19;154338;-62
2022/03/16 09:54:18;;;;;;;;;;;;;;;20.91;42.76;101607.00;7275884;19;153602;-61
2022/03/16 09:56:46;;;;;;;;;;;;;;;20.86;43.03;101611.53;7280532;19;152022;-60
2022/03/16 09:59:13;;;;;;;;;;;;;;;20.86;43.24;101600.28;7280143;19;154116;-61
2022/03/16 10:01:44;;;;;;;;;;;;;;;20.82;43.20;101599.22;7277555;19;154314;-62
2022/03/16 10:04:11;;;;;;;;;;;;;;;20.81;43.26;101605.09;7280358;19;151751;-60
2022/03/16 10:06:40;;;;;;;;;;;;;;;20.80;43.18;101609.88;7274786;19;152618;-61
2022/03/16 10:14:37;;;;;;;;;;;;;;;20.74;43.39;101604.63;7274116;19;154072;-60
2022/03/16 10:19:44;;;;;;;;;;;;;;;20.72;43.25;101581.59;7277744;19;152728;-60
2022/03/16 10:22:11;;;;;;;;;;;;;;;20.70;43.34;101590.34;7273161;19;154062;-61
2022/03/16 10:24:41;;;;;;;;;;;;;;;20.70;43.45;101592.31;7277183;19;152522;-61
2022/03/16 10:27:08;;;;;;;;;;;;;;;20.68;43.33;101578.53;7275030;19;153665;-60
2022/03/16 10:29:35;;;;;;;;;;;;;;;20.66;43.43;101572.41;7274926;19;154256;-62
2022/03/16 10:32:04;;;;;;;;;;;;;;;20.64;43.48;101566.22;7286175;19;152403;-60
2022/03/16 10:34:32;;;;;;;;;;;;;;;20.64;43.78;101573.81;7277394;19;153602;-61
2022/03/16 10:37:01;;;;;;;;;;;;;;;20.62;43.50;101562.06;7277159;19;152335;-60
2022/03/16 10:39:36;;;;;;;;;;;;;;;20.58;43.50;101547.75;7275178;19;153241;-60
2022/03/16 10:47:24;;;;;;;;;;;;;;;20.56;43.67;101533.19;7275843;19;152655;-61
2022/03/16 10:50:00;;;;;;;;;;;;;;;20.54;43.84;101520.56;7275850;19;155706;-60
2022/03/16 10:52:31;;;;;;;;;;;;;;;20.54;43.80;101523.34;7285994;19;151839;-61
2022/03/16 10:55:02;;;;;;;;;;;;;;;20.55;43.73;101519.44;7276856;19;154510;-61
2022/03/16 10:57:33;;;;;;;;;;;;;;;20.56;43.70;101507.06;7275087;19;152142;-61
2022/03/16 11:00:03;;;;;;;;;;;;;;;20.59;44.09;101509.28;7276258;19;153864;-61
2022/03/16 11:02:34;;;;;;;;;;;;;;;20.68;43.93;101511.16;7275875;19;153194;-61
2022/03/16 11:05:01;;;;;;;;;;;;;;;20.70;43.66;101506.09;7275480;19;151821;-61
2022/03/16 11:07:30;;;;;;;;;;;;;;;20.73;43.99;101499.03;7274072;19;153775;-61
2022/03/16 11:09:57;;;;;;;;;;;;;;;20.79;43.81;101503.47;7275474;19;153161;-62
2022/03/16 11:15:11;;;;;;;;;;;;;;;20.90;43.56;101485.34;7280314;19;152696;-61
2022/03/16 11:17:39;;;;;;;;;;;;;;;20.98;43.82;101492.31;7275124;19;151905;-60
2022/03/16 11:20:08;;;;;;;;;;;;;;;21.04;43.37;101488.28;7275328;19;153574;-60
2022/03/16 11:25:21;;;;;;;;;;;;;;;21.16;43.55;101474.72;7276563;19;151922;-62
2022/03/16 11:27:53;;;;;;;;;;;;;;;21.21;43.36;101472.66;7274192;19;152088;-61
2022/03/16 11:30:25;;;;;;;;;;;;;;;21.26;43.24;101471.75;7274893;19;154379;-60
2022/03/16 11:32:58;;;;;;;;;;;;;;;21.30;43.01;101467.22;7278690;19;151773;-61
2022/03/16 11:35:30;;;;;;;;;;;;;;;21.35;43.19;101449.47;7281052;19;154294;-61
2022/03/16 11:38:02;;;;;;;;;;;;;;;21.39;42.89;101439.28;7289695;19;153415;-61
2022/03/16 11:40:29;;;;;;;;;;;;;;;21.41;42.76;101440.63;7281208;19;153233;-62
2022/03/16 11:43:08;;;;;;;;;;;;;;;21.45;42.75;101446.47;7279636;19;153330;-60
2022/03/16 11:45:37;;;;;;;;;;;;;;;21.45;43.09;101452.94;7280566;19;152333;-61
2022/03/16 11:48:13;;;;;;;;;;;;;;;21.49;42.75;101448.38;7278773;19;153471;-61
2022/03/16 11:50:40;;;;;;;;;;;;;;;21.51;42.60;101446.13;7281652;19;153825;-61
2022/03/16 11:53:08;;;;;;;;;;;;;;;21.53;42.67;101445.84;7282675;19;152089;-62
2022/03/16 11:55:37;;;;;;;;;;;;;;;21.53;42.40;101429.78;7281603;19;153483;-61
2022/03/16 11:58:25;;;;;;;;;;;;;;;21.55;42.76;101421.88;7280213;19;154514;-61
2022/03/16 12:01:12;;;;;;;;;;;;;;;21.57;42.64;101428.06;7288426;19;153067;-60
2022/03/16 12:03:43;;;;;;;;;;;;;;;21.59;42.48;101420.13;7279268;19;153911;-61
2022/03/16 12:06:12;;;;;;;;;;;;;;;21.59;42.33;101413.66;7280446;19;151737;-61
2022/03/16 12:08:48;;;;;;;;;;;;;;;21.59;42.33;101419.28;7281052;19;152742;-61
2022/03/16 12:13:54;;;;;;;;;;;;;;;21.62;42.68;101405.44;7278261;19;153782;-62
2022/03/16 12:16:21;;;;;;;;;;;;;;;21.60;42.73;101393.69;7276182;19;153522;-61
2022/03/16 12:18:48;;;;;;;;;;;;;;;21.59;42.26;101389.19;7280485;19;155158;-61
2022/03/16 12:21:15;;;;;;;;;;;;;;;21.59;42.69;101388.34;7281656;19;151716;-60
2022/03/16 12:23:54;;;;;;;;;;;;;;;21.57;42.51;101383.06;7286084;19;154201;-61
2022/03/16 12:26:24;;;;;;;;;;;;;;;21.56;42.46;101380.53;7279175;19;152675;-62
2022/03/16 12:29:01;;;;;;;;;;;;;;;21.56;42.38;101374.91;7279517;19;152669;-61
2022/03/16 12:31:30;;;;;;;;;;;;;;;21.55;42.46;101364.81;7278622;19;153492;-61
2022/03/16 12:33:58;;;;;;;;;;;;;;;21.54;42.23;101372.41;7280948;19;152119;-61
2022/03/16 12:36:26;;;;;;;;;;;;;;;21.53;42.39;101369.91;7279429;19;153538;-61
2022/03/16 12:38:55;;;;;;;;;;;;;;;21.50;42.39;101376.97;7277955;19;155832;-60
2022/03/16 12:44:02;;;;;;;;;;;;;;;21.47;42.71;101368.31;7279017;19;153174;-61
2022/03/16 12:46:33;;;;;;;;;;;;;;;21.46;42.57;101364.66;7287576;19;153511;-61
2022/03/16 12:49:01;;;;;;;;;;;;;;;21.44;43.00;101358.50;7280052;19;152957;-61
2022/03/16 12:51:36;;;;;;;;;;;;;;;21.42;42.89;101369.22;7279807;19;154722;-61
2022/03/16 12:54:05;;;;;;;;;;;;;;;21.42;43.14;101352.34;7278939;19;151846;-62
2022/03/16 12:56:50;;;;;;;;;;;;;;;21.41;43.11;101349.84;7278735;19;153539;-61
2022/03/16 12:59:24;;;;;;;;;;;;;;;21.38;42.76;101347.66;7277052;19;153548;-62